Aérodrome :
LOGIN :

S'inscrire | Disclaimer

   EN    FR    IT 

 










Légende :    VFR   VFR Marginal   IFR   IFR Intensif   IFR Très Intensif
Visi : 
Plafond : 
>= 8 km
>= 3000ft
5 à 8 km
1000 à 3000 ft
1500m à 5 km
500 à 1000 ft
800 à 1500m
200 à 500 ft
< 800m
< 200 ft
Symboles :   Orages  Brouillard  Fortes neiges  Fortes précipitations  Vent > 20 kt
SIGMETs :   Divers  Orages  Givrage  Turbulence  Onde Orograph.  Cendres Volcan.







- Altitude de l'aérodrome : 844 ft
- Code IATA : OSR


LKMT - Ostrava-Mosnov

DERNIER METAR :
  • 221830Z 00000KT 9999 FEW040 10/09 Q1021 NOSIG

METARs EXPIRÉS :
  • 221800Z VRB01KT 9999 FEW040 10/09 Q1021 NOSIG
  • 221730Z VRB02KT 9999 FEW040 11/09 Q1021 NOSIG
  • 221700Z 12003KT 9999 FEW040 12/09 Q1021 NOSIG
  • 221630Z 10005KT 9999 FEW023 12/09 Q1021 NOSIG
  • 221600Z 07003KT 9999 FEW023 13/09 Q1021 NOSIG

TAF TAF LKMT
Valide du 22 à 18h jusqu'au 24 à 00h UTC


221700Z 2218/2400 05006KT 9999 SCT025
BECMG 2218/2220 BKN020
TEMPO 2218/2222 VRB02KT
BECMG 2222/2300 33008KT
BECMG 2303/2306 4000 -RA BKN015
TEMPO 2306/2400 2500 RA BKN011
PROB40
TEMPO 2306/2400 1200 BR OVC005
BECMG 2321/2323 01005KT
Pas de NOTAMs connus pour ce terrain.
1 SIGMET publié pour la FIR Praha (LKAA) :
 
Turbulence forte
LKAA SIGMET 3 VALID 221821/222100 LKPW
LKAA PRAHA FIR SEV TURB OBS SE OF LINE N4929 E01833 - N4931 E01728 - N4852 E01713 FL250/270 STNR NC=



MET'MAP, la Météo Aéronautique d'un coup d'oeil ! - Copyright ORBIFLY Décembre 2007 - Disclaimer

ORBIFLY MET'MAP TEAM :

Programmation & Développement : Alexandra Zaïnal
Conception & Développement : Baudouin d'Aumeries
Co-Programmation & Développement : Marc-Olivier Méhu
Soutien technique & logistique : Manuel Goepfert

Contact : metmap@orbifly.com




SOURCES & CREDITS :

   NOAA